createdAt,value
2022-08-03T00:02:19.251Z,49.29
2022-08-03T00:04:48.264Z,49.29
2022-08-03T00:07:17.602Z,49.17
2022-08-03T00:09:45.667Z,49.74
2022-08-03T00:12:14.055Z,49.84
2022-08-03T00:14:42.288Z,49.58
2022-08-03T00:17:10.230Z,49.91
2022-08-03T00:19:38.513Z,50.27
2022-08-03T00:22:06.461Z,50.20
2022-08-03T00:24:36.319Z,49.67
2022-08-03T00:27:04.572Z,49.48
2022-08-03T00:29:32.428Z,49.53
2022-08-03T00:32:00.766Z,49.56
2022-08-03T00:34:52.117Z,49.46
2022-08-03T00:37:18.118Z,49.50
2022-08-03T00:39:48.135Z,49.60
2022-08-03T00:42:16.910Z,49.78
2022-08-03T00:44:45.968Z,49.90
2022-08-03T00:47:14.337Z,50.32
2022-08-03T00:49:42.434Z,50.38
2022-08-03T00:52:11.211Z,50.10
2022-08-03T00:54:40.044Z,50.75
2022-08-03T00:57:09.732Z,50.69
2022-08-03T00:59:39.255Z,50.73
2022-08-03T01:02:07.426Z,50.32
2022-08-03T01:04:35.302Z,50.48
2022-08-03T01:07:12.337Z,50.37
2022-08-03T01:09:53.409Z,51.12
2022-08-03T01:12:33.048Z,52.32
2022-08-03T01:15:08.412Z,52.13
2022-08-03T01:17:45.096Z,50.91
2022-08-03T01:20:17.674Z,51.35
2022-08-03T01:23:04.373Z,50.79
2022-08-03T01:25:41.290Z,52.72
2022-08-03T01:28:26.530Z,51.11
2022-08-03T01:30:59.994Z,52.92
2022-08-03T01:33:36.096Z,51.01
2022-08-03T01:36:08.560Z,51.47
2022-08-03T01:38:42.491Z,50.66
2022-08-03T01:41:16.133Z,50.91
2022-08-03T01:44:27.817Z,51.65
2022-08-03T01:46:47.637Z,50.98
2022-08-03T01:49:17.990Z,51.25
2022-08-03T01:52:02.793Z,50.85
2022-08-03T01:54:36.252Z,51.93
2022-08-03T01:57:05.727Z,50.89
2022-08-03T01:59:36.777Z,51.06
2022-08-03T02:02:28.975Z,51.10
2022-08-03T02:04:57.829Z,50.95
2022-08-03T02:07:27.579Z,50.54
2022-08-03T02:09:56.812Z,50.49
2022-08-03T02:12:27.350Z,50.49
2022-08-03T02:14:57.380Z,50.79
2022-08-03T02:17:39.277Z,50.65
2022-08-03T02:20:11.752Z,51.58
2022-08-03T02:22:41.673Z,51.24
2022-08-03T02:25:11.528Z,51.37
2022-08-03T02:27:43.626Z,51.49
2022-08-03T02:30:14.450Z,51.20
2022-08-03T02:32:49.530Z,51.40
2022-08-03T02:35:19.587Z,51.60
2022-08-03T02:37:51.311Z,51.48
2022-08-03T02:40:22.507Z,51.89
2022-08-03T02:42:54.485Z,51.80
2022-08-03T02:45:25.346Z,51.95
2022-08-03T02:47:59.070Z,51.66
2022-08-03T02:50:28.160Z,52.79
2022-08-03T02:52:58.184Z,52.00
2022-08-03T02:55:28.135Z,52.15
2022-08-03T02:58:01.332Z,52.18
2022-08-03T03:00:31.997Z,52.73
2022-08-03T03:03:03.395Z,52.26
2022-08-03T03:05:54.568Z,52.93
2022-08-03T03:08:26.761Z,53.63
2022-08-03T03:10:57.298Z,54.14
2022-08-03T03:13:26.233Z,53.79
2022-08-03T03:15:57.467Z,54.46
2022-08-03T03:18:29.418Z,55.39
2022-08-03T03:20:58.802Z,55.75
2022-08-03T03:23:29.079Z,54.56
2022-08-03T03:25:58.544Z,54.45
2022-08-03T03:28:27.456Z,54.02
2022-08-03T03:30:55.734Z,54.62
2022-08-03T03:33:24.108Z,54.48
2022-08-03T03:35:54.464Z,54.11
2022-08-03T03:38:22.414Z,54.20
2022-08-03T03:40:50.610Z,54.11
2022-08-03T03:43:19.493Z,54.19
2022-08-03T03:45:48.883Z,54.07
2022-08-03T03:48:17.302Z,54.01
2022-08-03T03:50:45.523Z,54.22
2022-08-03T03:53:15.888Z,54.27
2022-08-03T03:55:59.007Z,53.93
2022-08-03T03:58:32.116Z,54.10
2022-08-03T04:01:00.357Z,53.94
2022-08-03T04:03:28.655Z,53.63
2022-08-03T04:06:14.715Z,53.90
2022-08-03T04:09:02.227Z,54.86
2022-08-03T04:11:36.890Z,56.18
2022-08-03T04:14:08.998Z,56.03
2022-08-03T04:16:43.672Z,55.98
2022-08-03T04:19:19.780Z,55.14
2022-08-03T04:21:57.029Z,54.90
2022-08-03T04:24:35.451Z,54.67
2022-08-03T04:27:07.948Z,54.92
2022-08-03T04:29:46.410Z,54.68
2022-08-03T04:32:17.970Z,54.65
2022-08-03T04:34:46.398Z,54.28
2022-08-03T04:37:24.112Z,54.10
2022-08-03T04:39:56.934Z,54.47
2022-08-03T04:42:26.796Z,54.32
2022-08-03T04:45:01.052Z,53.67
2022-08-03T04:47:31.803Z,53.24
2022-08-03T04:50:01.879Z,53.21
2022-08-03T04:52:29.931Z,53.27
2022-08-03T04:54:59.154Z,53.03
2022-08-03T04:57:27.410Z,53.06
2022-08-03T05:00:02.046Z,52.93
2022-08-03T05:02:33.539Z,52.88
2022-08-03T05:05:01.475Z,52.88
2022-08-03T05:07:35.872Z,52.76
2022-08-03T05:10:16.357Z,52.67
2022-08-03T05:12:46.215Z,53.61
2022-08-03T05:15:14.821Z,53.20
2022-08-03T05:17:42.884Z,53.28
2022-08-03T05:20:12.189Z,52.89
2022-08-03T05:22:40.456Z,52.63
2022-08-03T05:25:10.307Z,52.61
2022-08-03T05:27:47.535Z,52.71
2022-08-03T05:30:30.938Z,52.46
2022-08-03T05:33:05.111Z,52.47
2022-08-03T05:35:55.835Z,52.23
2022-08-03T05:38:28.229Z,52.00
2022-08-03T05:41:21.523Z,51.86
2022-08-03T05:43:47.758Z,51.88
2022-08-03T05:46:16.305Z,51.55
2022-08-03T05:48:44.490Z,51.46
2022-08-03T05:51:13.422Z,51.38
2022-08-03T05:53:41.781Z,51.06
2022-08-03T05:56:14.188Z,50.72
2022-08-03T05:58:45.067Z,50.63
2022-08-03T06:01:13.054Z,50.36
2022-08-03T06:03:41.451Z,49.96
2022-08-03T06:06:09.525Z,49.86
2022-08-03T06:08:37.699Z,49.64
2022-08-03T06:11:05.876Z,49.31
2022-08-03T06:13:35.428Z,49.29
2022-08-03T06:16:03.354Z,49.10
2022-08-03T06:18:31.498Z,48.66
2022-08-03T06:21:14.705Z,48.34
2022-08-03T06:23:52.970Z,48.13
2022-08-03T06:26:23.653Z,47.87
2022-08-03T06:28:54.440Z,47.56
2022-08-03T06:31:23.953Z,47.40
2022-08-03T06:34:32.577Z,47.08
2022-08-03T06:36:40.398Z,46.85
2022-08-03T06:39:08.691Z,46.76
2022-08-03T06:41:37.383Z,46.66
2022-08-03T06:44:10.342Z,46.39
2022-08-03T06:46:38.626Z,46.10
2022-08-03T06:49:07.627Z,45.85
2022-08-03T06:52:03.966Z,45.59
2022-08-03T06:54:24.374Z,45.29
2022-08-03T06:56:52.248Z,45.13
2022-08-03T07:00:10.769Z,45.00
2022-08-03T07:02:10.364Z,44.71
2022-08-03T07:04:38.462Z,44.59
2022-08-03T07:07:06.417Z,44.35
2022-08-03T07:09:34.640Z,44.02
2022-08-03T07:12:04.287Z,43.96
2022-08-03T07:14:33.551Z,43.68
2022-08-03T07:17:01.672Z,43.19
2022-08-03T07:19:39.387Z,43.13
2022-08-03T07:22:08.803Z,42.80
2022-08-03T07:24:36.711Z,42.61
2022-08-03T07:27:05.087Z,42.49
2022-08-03T07:29:35.789Z,42.08
2022-08-03T07:32:04.583Z,41.61
2022-08-03T07:34:32.862Z,41.57
2022-08-03T07:37:01.058Z,41.35
2022-08-03T07:39:28.944Z,41.05
2022-08-03T07:41:57.029Z,41.04
2022-08-03T07:44:25.168Z,40.82
2022-08-03T07:46:54.380Z,40.52
2022-08-03T07:49:24.672Z,40.23
2022-08-03T07:52:06.934Z,40.11
2022-08-03T07:54:34.792Z,39.85
2022-08-03T07:57:02.988Z,39.58
2022-08-03T07:59:30.936Z,39.60
2022-08-03T08:02:20.333Z,39.24
2022-08-03T08:04:49.803Z,39.03
2022-08-03T08:07:17.986Z,38.86
2022-08-03T08:09:48.536Z,38.60
2022-08-03T08:12:16.992Z,38.29
2022-08-03T08:14:46.813Z,38.07
2022-08-03T08:17:15.093Z,38.08
2022-08-03T08:19:46.717Z,37.69
2022-08-03T08:22:25.873Z,37.43
2022-08-03T08:24:59.508Z,37.47
2022-08-03T08:27:28.187Z,37.16
2022-08-03T08:30:19.768Z,37.01
2022-08-03T08:32:48.267Z,36.22
2022-08-03T08:35:18.315Z,36.49
2022-08-03T08:37:50.742Z,36.33
2022-08-03T08:40:22.143Z,36.34
2022-08-03T08:42:59.005Z,35.49
2022-08-03T08:45:27.986Z,35.73
2022-08-03T08:48:01.705Z,35.84
2022-08-03T08:50:32.760Z,35.56
2022-08-03T08:53:03.605Z,35.13
2022-08-03T08:55:56.926Z,34.75
2022-08-03T08:58:22.495Z,35.09
2022-08-03T09:00:51.766Z,35.13
2022-08-03T09:03:22.724Z,34.62
2022-08-03T09:06:02.171Z,34.66
2022-08-03T09:08:31.360Z,33.47
2022-08-03T09:10:59.563Z,33.98
2022-08-03T09:13:28.982Z,34.17
2022-08-03T09:16:11.972Z,34.03
2022-08-03T09:18:40.882Z,30.23
2022-08-03T09:21:32.590Z,33.81
2022-08-03T09:24:04.694Z,30.39
2022-08-03T09:26:35.291Z,33.16
2022-08-03T09:29:12.804Z,33.24
2022-08-03T09:31:44.707Z,33.08
2022-08-03T09:34:15.089Z,33.39
2022-08-03T09:36:46.806Z,33.15
2022-08-03T09:39:17.120Z,31.79
2022-08-03T09:41:46.935Z,32.68
2022-08-03T09:44:24.280Z,32.45
2022-08-03T09:46:56.115Z,32.58
2022-08-03T09:49:25.410Z,32.18
2022-08-03T09:52:32.367Z,32.15
2022-08-03T09:54:44.108Z,31.92
2022-08-03T09:57:22.953Z,30.72
2022-08-03T09:59:54.960Z,29.29
2022-08-03T10:02:41.644Z,32.24
2022-08-03T10:05:17.705Z,32.01
2022-08-03T10:07:50.556Z,31.42
2022-08-03T10:10:29.935Z,31.01
2022-08-03T10:13:01.134Z,31.25
2022-08-03T10:16:22.946Z,31.29
2022-08-03T10:18:17.620Z,31.32
2022-08-03T10:20:50.711Z,31.35
2022-08-03T10:23:22.290Z,30.84
2022-08-03T10:25:56.707Z,31.00
2022-08-03T10:28:25.474Z,29.46
2022-08-03T10:30:55.507Z,30.09
2022-08-03T10:33:51.013Z,30.71
2022-08-03T10:36:17.759Z,30.78
2022-08-03T10:38:52.485Z,30.84
2022-08-03T10:41:21.521Z,29.49
2022-08-03T10:43:53.822Z,30.59
2022-08-03T10:46:22.476Z,29.94
2022-08-03T10:48:52.778Z,29.96
2022-08-03T10:51:21.659Z,30.14
2022-08-03T10:53:55.047Z,30.05
2022-08-03T10:56:58.528Z,29.82
2022-08-03T11:00:00.226Z,27.22
2022-08-03T11:03:03.079Z,26.36
2022-08-03T11:05:32.574Z,24.34
2022-08-03T11:08:26.806Z,29.52
2022-08-03T11:10:59.340Z,26.51
2022-08-03T11:13:31.229Z,29.26
2022-08-03T11:16:05.871Z,29.41
2022-08-03T11:18:34.747Z,28.65
2022-08-03T11:21:04.228Z,29.22
2022-08-03T11:24:03.384Z,29.34
2022-08-03T11:26:34.694Z,25.57
2022-08-03T11:29:28.455Z,28.94
2022-08-03T11:31:56.629Z,23.02
2022-08-03T11:34:24.943Z,28.89
2022-08-03T11:37:23.166Z,28.02
2022-08-03T11:39:54.594Z,24.04
2022-08-03T11:42:48.947Z,28.19
2022-08-03T11:45:19.834Z,26.22
2022-08-03T11:47:51.331Z,27.93
2022-08-03T11:50:21.338Z,28.19
2022-08-03T11:52:50.382Z,28.17
2022-08-03T11:55:21.759Z,28.01
2022-08-03T11:59:12.973Z,27.68
2022-08-03T12:00:41.448Z,27.81
2022-08-03T12:03:13.667Z,27.96
2022-08-03T12:05:51.732Z,26.91
2022-08-03T12:08:32.818Z,24.06
2022-08-03T12:11:03.009Z,23.62
2022-08-03T12:14:43.785Z,27.11
2022-08-03T12:16:28.772Z,23.73
2022-08-03T12:18:58.521Z,26.59
2022-08-03T12:21:26.956Z,26.94
2022-08-03T12:24:00.191Z,26.79
2022-08-03T12:26:30.068Z,26.20
2022-08-03T12:28:59.549Z,26.83
2022-08-03T12:31:27.541Z,26.30
2022-08-03T12:33:59.035Z,26.68
2022-08-03T12:36:28.304Z,26.45
2022-08-03T12:38:58.413Z,26.65
2022-08-03T12:41:31.821Z,26.61
2022-08-03T12:44:03.334Z,26.00
2022-08-03T12:46:33.153Z,26.69
2022-08-03T12:49:09.741Z,25.87
2022-08-03T12:51:41.680Z,23.68
2022-08-03T12:54:11.184Z,26.39
2022-08-03T12:56:59.695Z,26.35
2022-08-03T12:59:34.723Z,23.57
2022-08-03T13:02:16.239Z,25.98
2022-08-03T13:04:47.764Z,23.78
2022-08-03T13:07:18.118Z,25.70
2022-08-03T13:09:50.345Z,25.84
2022-08-03T13:12:20.923Z,26.00
2022-08-03T13:14:52.681Z,25.90
2022-08-03T13:17:21.072Z,25.36
2022-08-03T13:19:50.376Z,25.73
2022-08-03T13:22:20.016Z,25.55
2022-08-03T13:24:49.776Z,25.37
2022-08-03T13:28:01.757Z,25.27
2022-08-03T13:30:09.769Z,25.41
2022-08-03T13:32:38.048Z,24.19
2022-08-03T13:35:07.006Z,25.30
2022-08-03T13:37:35.777Z,25.11
2022-08-03T13:40:07.291Z,24.94
2022-08-03T13:42:38.982Z,23.80
2022-08-03T13:45:11.161Z,24.74
2022-08-03T13:47:39.364Z,24.35
2022-08-03T13:50:08.287Z,24.49
2022-08-03T13:52:37.325Z,24.33
2022-08-03T13:55:07.176Z,24.98
2022-08-03T13:58:02.725Z,24.57
2022-08-03T14:00:28.616Z,24.60
2022-08-03T14:03:09.247Z,24.42
2022-08-03T14:05:41.211Z,23.16
2022-08-03T14:08:09.480Z,24.17
2022-08-03T14:10:40.325Z,23.97
2022-08-03T14:13:08.777Z,24.07
2022-08-03T14:15:38.797Z,24.02
2022-08-03T14:18:15.756Z,24.06
2022-08-03T14:20:49.140Z,23.96
2022-08-03T14:23:22.618Z,24.04
2022-08-03T14:25:52.326Z,23.54
2022-08-03T14:28:22.552Z,23.47
2022-08-03T14:30:53.794Z,23.65
2022-08-03T14:33:21.982Z,23.58
2022-08-03T14:35:50.734Z,24.01
2022-08-03T14:38:19.398Z,23.90
2022-08-03T14:40:47.559Z,24.04
2022-08-03T14:43:17.816Z,24.12
2022-08-03T14:45:45.791Z,24.54
2022-08-03T14:50:34.340Z,24.67
2022-08-03T14:51:03.139Z,24.78
2022-08-03T14:53:31.032Z,24.69
2022-08-03T14:55:58.982Z,24.87
2022-08-03T14:58:27.290Z,24.42
2022-08-03T15:00:56.562Z,24.12
2022-08-03T15:03:26.437Z,23.39
2022-08-03T15:05:56.111Z,23.58
2022-08-03T15:08:26.045Z,23.98
2022-08-03T15:10:54.741Z,23.73
2022-08-03T15:13:23.459Z,23.19
2022-08-03T15:15:52.048Z,23.11
2022-08-03T15:18:21.100Z,22.87
2022-08-03T15:20:50.885Z,22.94
2022-08-03T15:23:19.647Z,22.56
2022-08-03T15:26:28.679Z,22.22
2022-08-03T15:28:39.602Z,21.76
2022-08-03T15:31:07.953Z,20.83
2022-08-03T15:33:35.856Z,22.15
2022-08-03T15:36:05.907Z,21.92
2022-08-03T15:38:34.060Z,21.39
2022-08-03T15:41:02.076Z,21.69
2022-08-03T15:43:30.103Z,21.71
2022-08-03T15:46:27.813Z,20.66
2022-08-03T15:48:47.253Z,20.90
2022-08-03T15:51:17.370Z,21.05
2022-08-03T15:53:45.506Z,20.43
2022-08-03T15:56:18.232Z,20.05
2022-08-03T15:59:09.241Z,19.98
2022-08-03T16:01:35.138Z,20.33
2022-08-03T16:04:03.343Z,21.18
2022-08-03T16:06:36.069Z,21.27
2022-08-03T16:09:23.873Z,20.84
2022-08-03T16:11:54.995Z,20.49
2022-08-03T16:14:32.510Z,20.58
2022-08-03T16:17:04.641Z,20.38
2022-08-03T16:19:32.863Z,20.30
2022-08-03T16:22:03.231Z,20.85
2022-08-03T16:24:31.881Z,20.83
2022-08-03T16:27:00.582Z,21.03
2022-08-03T16:29:29.350Z,20.91
2022-08-03T16:31:57.357Z,20.60
2022-08-03T16:34:25.481Z,20.13
2022-08-03T16:36:54.654Z,20.15
2022-08-03T16:39:23.947Z,20.53
2022-08-03T16:41:53.575Z,19.84
2022-08-03T16:44:29.862Z,20.02
2022-08-03T16:46:58.376Z,20.01
2022-08-03T16:49:54.908Z,20.27
2022-08-03T16:52:16.817Z,20.69
2022-08-03T16:54:50.638Z,20.78
2022-08-03T16:57:58.213Z,20.14
2022-08-03T17:00:33.148Z,20.82
2022-08-03T17:03:04.426Z,20.67
2022-08-03T17:05:47.005Z,20.85
2022-08-03T17:08:16.113Z,21.19
2022-08-03T17:10:45.602Z,21.05
2022-08-03T17:13:21.420Z,20.65
2022-08-03T17:15:58.203Z,20.87
2022-08-03T17:18:35.097Z,20.94
2022-08-03T17:21:05.737Z,20.87
2022-08-03T17:23:40.586Z,21.46
2022-08-03T17:26:21.278Z,19.07
2022-08-03T17:28:56.369Z,19.46
2022-08-03T17:31:31.668Z,20.80
2022-08-03T17:34:04.424Z,21.05
2022-08-03T17:37:02.209Z,20.93
2022-08-03T17:39:41.817Z,20.90
2022-08-03T17:42:26.925Z,20.79
2022-08-03T17:45:02.518Z,20.79
2022-08-03T17:47:41.124Z,21.46
2022-08-03T17:50:23.958Z,21.57
2022-08-03T17:53:07.039Z,22.25
2022-08-03T17:55:55.980Z,21.33
2022-08-03T17:58:41.490Z,22.23
2022-08-03T18:01:57.365Z,21.65
2022-08-03T18:04:30.019Z,22.61
2022-08-03T18:07:11.110Z,23.51
2022-08-03T18:10:03.837Z,24.45
2022-08-03T18:12:41.472Z,25.22
2022-08-03T18:15:21.212Z,25.89
2022-08-03T18:17:58.391Z,26.73
2022-08-03T18:20:41.082Z,26.07
2022-08-03T18:23:24.881Z,26.27
2022-08-03T18:26:02.845Z,26.59
2022-08-03T18:28:34.137Z,26.83
2022-08-03T18:31:06.854Z,26.88
2022-08-03T18:34:19.727Z,27.06
2022-08-03T18:36:29.610Z,27.36
2022-08-03T18:39:00.133Z,27.62
2022-08-03T18:41:32.172Z,28.59
2022-08-03T18:44:08.591Z,28.93
2022-08-03T18:46:48.255Z,29.35
2022-08-03T18:49:25.338Z,31.57
2022-08-03T18:52:04.799Z,29.83
2022-08-03T18:55:00.987Z,32.54
2022-08-03T18:57:43.587Z,33.04
2022-08-03T19:00:15.666Z,31.76
2022-08-03T19:02:50.813Z,31.29
2022-08-03T19:05:21.622Z,33.82
2022-08-03T19:07:59.765Z,32.12
2022-08-03T19:10:32.279Z,33.86
2022-08-03T19:13:05.274Z,33.37
2022-08-03T19:15:51.524Z,33.34
2022-08-03T19:18:23.105Z,31.96
2022-08-03T19:20:53.196Z,32.42
2022-08-03T19:23:25.938Z,31.73
2022-08-03T19:26:01.387Z,31.64
2022-08-03T19:28:30.578Z,31.52
2022-08-03T19:31:02.645Z,31.57
2022-08-03T19:33:55.804Z,33.06
2022-08-03T19:36:27.290Z,33.56
2022-08-03T19:38:58.075Z,33.52
2022-08-03T19:41:31.237Z,33.59
2022-08-03T19:44:12.288Z,34.13
2022-08-03T19:46:53.607Z,34.39
2022-08-03T19:50:04.736Z,35.60
2022-08-03T19:52:20.649Z,36.28
2022-08-03T19:54:54.629Z,34.61
2022-08-03T19:57:27.216Z,34.85
2022-08-03T19:59:56.610Z,35.24
2022-08-03T20:02:27.048Z,35.39
2022-08-03T20:05:03.906Z,35.52
2022-08-03T20:07:51.958Z,36.59
2022-08-03T20:10:21.028Z,36.60
2022-08-03T20:12:49.652Z,36.64
2022-08-03T20:15:18.170Z,36.69
2022-08-03T20:17:59.371Z,36.98
2022-08-03T20:20:30.767Z,36.89
2022-08-03T20:23:01.162Z,37.38
2022-08-03T20:25:38.986Z,37.31
2022-08-03T20:28:14.210Z,37.36
2022-08-03T20:30:47.328Z,38.33
2022-08-03T20:33:18.396Z,36.80
2022-08-03T20:35:49.922Z,36.56
2022-08-03T20:38:18.924Z,37.53
2022-08-03T20:40:48.408Z,37.67
2022-08-03T20:43:16.918Z,37.89
2022-08-03T20:46:01.176Z,37.94
2022-08-03T20:48:37.223Z,38.06
2022-08-03T20:51:19.626Z,38.01
2022-08-03T20:53:59.537Z,38.42
2022-08-03T20:56:33.746Z,38.57
2022-08-03T20:59:04.268Z,39.22
2022-08-03T21:01:36.841Z,38.37
2022-08-03T21:04:34.571Z,38.05
2022-08-03T21:07:16.306Z,38.32
2022-08-03T21:09:52.109Z,39.27
2022-08-03T21:12:35.931Z,39.72
2022-08-03T21:15:07.585Z,42.55
2022-08-03T21:17:42.264Z,39.38
2022-08-03T21:20:12.842Z,39.61
2022-08-03T21:22:46.654Z,39.47
2022-08-03T21:25:17.017Z,40.44
2022-08-03T21:27:46.882Z,39.67
2022-08-03T21:30:16.008Z,40.03
2022-08-03T21:32:49.103Z,40.01
2022-08-03T21:35:25.236Z,41.60
2022-08-03T21:38:16.280Z,40.44
2022-08-03T21:40:45.029Z,41.08
2022-08-03T21:43:14.474Z,40.71
2022-08-03T21:45:48.142Z,40.89
2022-08-03T21:48:17.161Z,41.96
2022-08-03T21:50:46.522Z,40.99
2022-08-03T21:53:17.111Z,41.06
2022-08-03T21:55:51.397Z,41.31
2022-08-03T21:58:29.507Z,41.82
2022-08-03T22:00:59.178Z,41.66
2022-08-03T22:03:29.130Z,41.40
2022-08-03T22:06:04.939Z,41.40
2022-08-03T22:08:36.189Z,41.64
2022-08-03T22:11:05.581Z,42.21
2022-08-03T22:13:43.160Z,41.84
2022-08-03T22:16:14.300Z,41.87
2022-08-03T22:18:44.523Z,42.05
2022-08-03T22:21:15.204Z,42.19
2022-08-03T22:23:47.314Z,42.56
2022-08-03T22:26:34.602Z,43.09
2022-08-03T22:29:07.842Z,42.63
2022-08-03T22:31:58.315Z,43.48
2022-08-03T22:34:27.527Z,42.62
2022-08-03T22:37:01.749Z,42.65
2022-08-03T22:39:31.621Z,42.32
2022-08-03T22:42:00.206Z,42.62
2022-08-03T22:44:31.072Z,42.84
2022-08-03T22:46:59.380Z,42.74
2022-08-03T22:49:28.981Z,42.89
2022-08-03T22:51:57.294Z,43.12
2022-08-03T22:54:25.713Z,43.30
2022-08-03T22:56:55.941Z,43.29
2022-08-03T22:59:38.849Z,43.54
2022-08-03T23:02:20.585Z,43.20
2022-08-03T23:04:53.461Z,43.27
2022-08-03T23:07:29.120Z,42.77
2022-08-03T23:09:57.824Z,43.11
2022-08-03T23:12:29.505Z,42.54
2022-08-03T23:15:05.437Z,42.67
2022-08-03T23:17:34.415Z,42.15
2022-08-03T23:20:26.674Z,42.27
2022-08-03T23:22:55.561Z,42.52
2022-08-03T23:25:24.698Z,42.56
2022-08-03T23:28:05.146Z,42.71
2022-08-03T23:30:35.667Z,43.53
2022-08-03T23:33:05.037Z,42.69
2022-08-03T23:36:20.105Z,42.96
2022-08-03T23:38:40.018Z,43.32
2022-08-03T23:41:10.192Z,43.53
2022-08-03T23:43:51.686Z,43.83
2022-08-03T23:46:22.797Z,44.42
2022-08-03T23:48:51.377Z,44.51
2022-08-03T23:51:26.054Z,44.35
2022-08-03T23:54:02.278Z,45.35
2022-08-03T23:56:38.748Z,45.38
2022-08-03T23:59:18.563Z,46.30
